Time;durP1;ratioP1;P1;durP2;ratioP2;P2;SDS_P1;SDS_P2;PMS_P1;PMS_P2;Temp;Humidity;BMP_temperature;BMP_pressure;BME280_temperature;BME280_humidity;BME280_pressure;Samples;Min_cycle;Max_cycle;Signal;HPM_P1;HPM_P2
2022/11/27 00:00:21;;;;;;;20.50;17.60;;;4.80;99.90;;;;;;4994786;28;20416;-76
2022/11/27 00:02:47;;;;;;;24.60;18.50;;;4.80;99.90;;;;;;5010603;28;20197;-76
2022/11/27 00:05:13;;;;;;;20.53;17.03;;;4.80;99.90;;;;;;5014899;28;20228;-76
2022/11/27 00:07:38;;;;;;;20.00;15.97;;;4.80;99.90;;;;;;5006492;28;20224;-76
2022/11/27 00:10:05;;;;;;;21.70;17.93;;;4.70;99.90;;;;;;5002847;28;20715;-76
2022/11/27 00:12:30;;;;;;;19.83;17.10;;;4.60;99.90;;;;;;4975644;28;20533;-76
2022/11/27 00:14:56;;;;;;;19.60;16.67;;;4.60;99.90;;;;;;4992799;28;20404;-76
2022/11/27 00:17:21;;;;;;;16.47;14.77;;;4.50;99.90;;;;;;4994606;28;20173;-76
2022/11/27 00:19:47;;;;;;;24.80;17.63;;;4.50;99.90;;;;;;4996625;28;20266;-76
2022/11/27 00:22:12;;;;;;;21.43;18.03;;;4.50;99.90;;;;;;4996168;28;20637;-76
2022/11/27 00:24:38;;;;;;;21.03;18.00;;;4.60;99.90;;;;;;4995548;28;20184;-76
2022/11/27 00:27:03;;;;;;;19.43;16.30;;;4.60;99.90;;;;;;4994449;28;20619;-76
2022/11/27 00:29:30;;;;;;;17.07;15.30;;;4.40;99.90;;;;;;4995425;28;20197;-76
2022/11/27 00:31:56;;;;;;;19.57;16.30;;;4.30;99.90;;;;;;4995626;28;20165;-76
2022/11/27 00:34:22;;;;;;;16.47;14.43;;;4.20;99.90;;;;;;4995446;28;20954;-77
2022/11/27 00:36:47;;;;;;;25.50;20.83;;;4.10;99.90;;;;;;4996335;28;20943;-76
2022/11/27 00:39:13;;;;;;;19.73;16.40;;;4.10;99.90;;;;;;4978101;28;20514;-76
2022/11/27 00:41:39;;;;;;;18.13;16.13;;;4.20;99.90;;;;;;4995498;28;20173;-76
2022/11/27 00:44:04;;;;;;;23.90;18.13;;;4.20;99.90;;;;;;4995392;28;20192;-76
2022/11/27 00:46:32;;;;;;;21.30;17.50;;;4.10;99.90;;;;;;4976862;28;20226;-76
2022/11/27 00:48:59;;;;;;;18.13;15.23;;;4.20;99.90;;;;;;4995623;28;20204;-76
2022/11/27 00:51:26;;;;;;;24.43;19.20;;;4.20;99.90;;;;;;4995557;28;20488;-76
2022/11/27 00:53:52;;;;;;;19.83;15.20;;;4.20;99.90;;;;;;4995485;28;20428;-75
2022/11/27 00:56:24;;;;;;;20.50;18.30;;;4.10;99.90;;;;;;4995919;28;20407;-76
2022/11/27 00:58:50;;;;;;;18.23;15.50;;;4.10;99.90;;;;;;4995322;28;20416;-75
2022/11/27 01:01:21;;;;;;;15.77;14.27;;;4.10;99.90;;;;;;4994900;28;20399;-76
2022/11/27 01:03:47;;;;;;;18.47;16.57;;;4.10;99.90;;;;;;4995546;28;20435;-76
2022/11/27 01:06:14;;;;;;;21.10;15.83;;;4.00;99.90;;;;;;4995388;28;20490;-76
2022/11/27 01:08:40;;;;;;;16.57;14.63;;;3.90;99.90;;;;;;4995026;28;20470;-76
2022/11/27 01:11:06;;;;;;;24.23;17.07;;;3.90;99.90;;;;;;4995954;28;20808;-76
2022/11/27 01:13:34;;;;;;;16.10;13.93;;;4.00;99.90;;;;;;4995148;28;20272;-76
2022/11/27 01:16:10;;;;;;;16.83;14.70;;;3.90;99.90;;;;;;4994562;28;20822;-75
2022/11/27 01:18:37;;;;;;;19.00;16.83;;;3.90;99.90;;;;;;4995348;28;20388;-76
2022/11/27 01:21:04;;;;;;;15.80;13.13;;;4.00;99.90;;;;;;4995068;28;20780;-76
2022/11/27 01:23:30;;;;;;;20.30;16.70;;;3.90;99.90;;;;;;4995199;28;20436;-76
2022/11/27 01:25:56;;;;;;;17.40;12.70;;;3.80;99.90;;;;;;4994098;28;20498;-76
2022/11/27 01:28:22;;;;;;;18.67;15.73;;;3.80;99.90;;;;;;4993591;28;20508;-75
2022/11/27 01:30:49;;;;;;;17.87;14.33;;;3.80;99.90;;;;;;4977207;28;20704;-75
2022/11/27 01:33:16;;;;;;;16.30;14.57;;;3.90;99.90;;;;;;4994515;28;20436;-76
2022/11/27 01:35:41;;;;;;;17.03;13.87;;;4.00;99.90;;;;;;4995474;28;20765;-76
2022/11/27 01:38:07;;;;;;;15.80;12.43;;;3.90;99.90;;;;;;4995873;28;20415;-76
2022/11/27 01:40:33;;;;;;;19.97;16.00;;;3.90;99.90;;;;;;4995057;28;20263;-76
2022/11/27 01:42:58;;;;;;;18.77;14.00;;;3.90;99.90;;;;;;4977582;28;20454;-76
2022/11/27 01:45:24;;;;;;;15.00;13.40;;;3.90;99.90;;;;;;4995771;28;20177;-76
2022/11/27 01:47:54;;;;;;;15.47;13.87;;;3.90;99.90;;;;;;4995932;28;20216;-76
2022/11/27 01:50:24;;;;;;;13.27;11.97;;;4.00;99.90;;;;;;4994846;28;20855;-76
2022/11/27 01:52:54;;;;;;;17.27;14.50;;;4.00;99.90;;;;;;4994805;28;20571;-76
2022/11/27 01:55:34;;;;;;;21.03;17.10;;;3.90;99.90;;;;;;4977144;28;20443;-76
2022/11/27 01:58:12;;;;;;;14.43;12.87;;;3.80;99.90;;;;;;4995091;28;20434;-76
2022/11/27 02:00:38;;;;;;;15.70;14.07;;;3.80;99.90;;;;;;4995460;28;20391;-76
2022/11/27 02:03:05;;;;;;;16.87;15.17;;;3.70;99.90;;;;;;4995517;28;20438;-75
2022/11/27 02:05:32;;;;;;;13.73;12.50;;;3.70;99.90;;;;;;4995299;28;20407;-76
2022/11/27 02:08:01;;;;;;;15.83;13.90;;;3.90;99.90;;;;;;4995709;28;20418;-76
2022/11/27 02:10:48;;;;;;;18.67;15.03;;;3.80;99.90;;;;;;4997275;28;20813;-76
2022/11/27 02:13:32;;;;;;;16.27;14.43;;;3.80;99.90;;;;;;4998052;28;20427;-76
2022/11/27 02:16:23;;;;;;;16.53;14.00;;;3.60;99.90;;;;;;4996827;28;20426;-75
2022/11/27 02:18:59;;;;;;;20.73;16.00;;;3.70;99.90;;;;;;4997206;28;20398;-76
2022/11/27 02:21:40;;;;;;;13.57;12.00;;;3.60;99.90;;;;;;5013341;28;20410;-75
2022/11/27 02:24:31;;;;;;;15.57;14.07;;;3.60;99.90;;;;;;5015581;28;20427;-75
2022/11/27 02:27:34;;;;;;;14.30;11.73;;;3.70;99.90;;;;;;4997027;28;20428;-75
2022/11/27 02:30:03;;;;;;;13.27;11.97;;;3.70;99.90;;;;;;5003802;28;20420;-75
2022/11/27 02:32:36;;;;;;;15.00;13.40;;;3.70;99.90;;;;;;5017373;28;20407;-74
2022/11/27 02:35:22;;;;;;;13.20;11.60;;;3.60;99.90;;;;;;5014512;28;20435;-75
2022/11/27 02:37:47;;;;;;;13.83;12.47;;;3.60;99.90;;;;;;5016189;28;20395;-75
2022/11/27 02:40:22;;;;;;;16.60;14.80;;;3.60;99.90;;;;;;5015526;28;20444;-75
2022/11/27 02:42:50;;;;;;;17.13;14.17;;;3.60;99.90;;;;;;5014565;28;20290;-75
2022/11/27 02:45:21;;;;;;;15.93;14.23;;;3.50;99.90;;;;;;4996699;28;20893;-75
2022/11/27 02:47:49;;;;;;;12.93;11.43;;;3.50;99.90;;;;;;4993557;28;20396;-75
2022/11/27 02:50:22;;;;;;;16.73;13.97;;;3.40;99.90;;;;;;4993394;28;20454;-75
2022/11/27 02:52:51;;;;;;;17.43;13.63;;;3.40;99.90;;;;;;4976089;28;20431;-75
2022/11/27 02:55:21;;;;;;;15.27;13.73;;;3.30;99.90;;;;;;4975958;28;20412;-75
2022/11/27 02:57:50;;;;;;;14.37;12.87;;;3.30;99.90;;;;;;4992112;28;20451;-74
2022/11/27 03:00:16;;;;;;;16.83;12.67;;;3.30;99.90;;;;;;4993186;28;20411;-75
2022/11/27 03:02:47;;;;;;;16.10;13.10;;;3.20;99.90;;;;;;4993357;28;20416;-75
2022/11/27 03:05:17;;;;;;;16.43;14.67;;;3.20;99.90;;;;;;4993860;28;20396;-76
2022/11/27 03:07:48;;;;;;;14.87;13.27;;;3.20;99.90;;;;;;4993690;28;20412;-75
2022/11/27 03:10:41;;;;;;;17.77;12.47;;;3.30;99.90;;;;;;4993566;28;20448;-75
2022/11/27 03:13:07;;;;;;;14.93;12.50;;;3.30;99.90;;;;;;4958218;28;20438;-75
2022/11/27 03:15:49;;;;;;;15.77;12.70;;;3.30;99.90;;;;;;4992906;28;20404;-75
2022/11/27 03:18:29;;;;;;;15.83;14.23;;;3.40;99.90;;;;;;4993127;28;20271;-75
2022/11/27 03:21:08;;;;;;;19.60;14.20;;;3.40;99.90;;;;;;4993178;28;20388;-75
2022/11/27 03:23:33;;;;;;;13.90;12.23;;;3.40;99.90;;;;;;4975076;28;20814;-75
2022/11/27 03:25:59;;;;;;;12.37;11.00;;;3.40;99.90;;;;;;4992538;28;20415;-75
2022/11/27 03:28:27;;;;;;;15.60;12.53;;;3.30;99.90;;;;;;4991512;28;20177;-75
2022/11/27 03:30:53;;;;;;;15.60;13.57;;;3.30;99.90;;;;;;4992664;28;20196;-75
2022/11/27 03:33:19;;;;;;;17.30;12.90;;;3.30;99.90;;;;;;4992478;28;20485;-75
2022/11/27 03:35:44;;;;;;;14.80;13.10;;;3.30;99.90;;;;;;4992697;28;20518;-75
2022/11/27 03:38:10;;;;;;;14.33;12.80;;;3.20;99.90;;;;;;4992781;28;20652;-75
2022/11/27 03:40:51;;;;;;;16.37;12.60;;;3.10;99.90;;;;;;4992695;28;20260;-75
2022/11/27 03:43:26;;;;;;;17.60;14.07;;;3.20;99.90;;;;;;4974472;28;20524;-74
2022/11/27 03:46:21;;;;;;;14.50;12.43;;;3.20;99.90;;;;;;4992757;28;20530;-74
2022/11/27 03:48:55;;;;;;;16.20;12.57;;;3.20;99.90;;;;;;4992828;28;20514;-74
2022/11/27 03:52:05;;;;;;;19.70;15.37;;;3.10;99.90;;;;;;4992506;28;20763;-75
2022/11/27 03:54:42;;;;;;;16.20;12.87;;;3.20;99.90;;;;;;4996210;28;20970;-75
2022/11/27 03:57:25;;;;;;;15.33;12.57;;;3.20;99.90;;;;;;4996576;28;20415;-75
2022/11/27 03:59:55;;;;;;;14.27;12.53;;;3.20;99.90;;;;;;4996403;28;20908;-75
2022/11/27 04:02:31;;;;;;;19.03;13.40;;;3.20;99.90;;;;;;4996776;28;20446;-75
2022/11/27 04:04:57;;;;;;;19.70;13.73;;;3.30;99.90;;;;;;4996214;28;20411;-75
2022/11/27 04:07:22;;;;;;;17.73;13.43;;;3.10;99.90;;;;;;4996210;28;20450;-75
2022/11/27 04:09:48;;;;;;;16.70;13.33;;;3.10;99.90;;;;;;4996147;28;20991;-75
2022/11/27 04:12:14;;;;;;;17.47;11.77;;;3.10;99.90;;;;;;4995859;28;20204;-75
2022/11/27 04:14:39;;;;;;;13.27;11.63;;;3.20;99.90;;;;;;4996044;28;20247;-75
2022/11/27 04:17:05;;;;;;;15.07;11.80;;;3.20;99.90;;;;;;4978875;28;20169;-75
2022/11/27 04:19:30;;;;;;;17.50;12.10;;;3.20;99.90;;;;;;4996347;28;20235;-75
2022/11/27 04:21:56;;;;;;;14.60;11.30;;;3.20;99.90;;;;;;4995994;28;20175;-75
2022/11/27 04:24:21;;;;;;;19.93;12.37;;;3.20;99.90;;;;;;4996081;28;20291;-74
2022/11/27 04:26:47;;;;;;;17.17;13.60;;;3.20;99.90;;;;;;4995857;28;20549;-75
2022/11/27 04:29:12;;;;;;;12.13;10.17;;;3.20;99.90;;;;;;4994154;28;20571;-74
2022/11/27 04:31:38;;;;;;;15.17;12.00;;;3.20;99.90;;;;;;4996085;28;20191;-75
2022/11/27 04:34:04;;;;;;;14.83;11.70;;;3.20;99.90;;;;;;4996140;28;20272;-75
2022/11/27 04:36:29;;;;;;;16.10;12.90;;;3.20;99.90;;;;;;4995965;28;20176;-74
2022/11/27 04:38:55;;;;;;;11.10;9.90;;;3.20;99.90;;;;;;4997993;28;20252;-75
2022/11/27 04:41:20;;;;;;;17.77;12.87;;;3.20;99.90;;;;;;4978106;28;20177;-74
2022/11/27 04:43:46;;;;;;;14.60;11.67;;;3.10;99.90;;;;;;4995660;28;20628;-74
2022/11/27 04:46:12;;;;;;;13.90;10.87;;;3.20;99.90;;;;;;4994391;28;20235;-76
2022/11/27 04:48:37;;;;;;;13.20;11.10;;;3.20;99.90;;;;;;4978239;28;20173;-75
2022/11/27 04:51:03;;;;;;;15.47;11.17;;;3.20;99.90;;;;;;4996270;28;20199;-75
2022/11/27 04:53:28;;;;;;;16.33;12.73;;;3.10;99.90;;;;;;4995773;28;20204;-75
2022/11/27 04:55:54;;;;;;;15.13;12.40;;;3.20;99.90;;;;;;4978058;28;20220;-74
2022/11/27 04:58:19;;;;;;;17.63;13.00;;;3.20;99.90;;;;;;4995694;28;20197;-74
2022/11/27 05:00:45;;;;;;;16.17;11.00;;;3.10;99.90;;;;;;4995632;28;20184;-75
2022/11/27 05:03:11;;;;;;;12.90;10.00;;;3.10;99.90;;;;;;4995276;28;20228;-75
2022/11/27 05:05:37;;;;;;;13.40;11.77;;;3.10;99.90;;;;;;4995685;28;20169;-75
2022/11/27 05:08:02;;;;;;;11.53;10.33;;;3.20;99.90;;;;;;4996090;28;20176;-75
2022/11/27 05:10:28;;;;;;;16.93;11.67;;;3.10;99.90;;;;;;4995320;28;20458;-75
2022/11/27 05:12:54;;;;;;;17.23;11.47;;;3.10;99.90;;;;;;4995493;28;20259;-75
2022/11/27 05:15:19;;;;;;;11.17;9.97;;;3.00;99.90;;;;;;4995023;28;20638;-74
2022/11/27 05:17:45;;;;;;;10.60;9.50;;;3.00;99.90;;;;;;4995098;28;20180;-75
2022/11/27 05:20:10;;;;;;;12.80;11.30;;;3.10;99.90;;;;;;4995668;28;20642;-75
2022/11/27 05:22:36;;;;;;;13.43;10.10;;;3.10;99.90;;;;;;4995302;28;20181;-75
2022/11/27 05:25:02;;;;;;;14.00;10.07;;;3.10;99.90;;;;;;4994915;28;20172;-75
2022/11/27 05:27:27;;;;;;;11.20;8.90;;;3.20;99.90;;;;;;4994125;28;20185;-75
2022/11/27 05:29:53;;;;;;;13.67;10.70;;;3.10;99.90;;;;;;4993318;28;20201;-74
2022/11/27 05:32:19;;;;;;;13.17;10.10;;;3.10;99.90;;;;;;4995023;28;20180;-75
2022/11/27 05:34:44;;;;;;;13.13;9.70;;;3.10;99.90;;;;;;4994372;28;20191;-74
2022/11/27 05:37:11;;;;;;;13.50;10.53;;;3.10;99.90;;;;;;4995055;28;20161;-75
2022/11/27 05:39:37;;;;;;;11.10;8.10;;;3.10;99.90;;;;;;4994786;28;20259;-75
2022/11/27 05:42:03;;;;;;;11.10;9.50;;;3.10;99.90;;;;;;4994553;28;20457;-74
2022/11/27 05:44:29;;;;;;;17.43;14.47;;;3.00;99.90;;;;;;4993716;28;20184;-75
2022/11/27 05:46:55;;;;;;;14.70;9.90;;;3.00;99.90;;;;;;4976598;28;20176;-74
2022/11/27 05:49:21;;;;;;;11.00;9.37;;;3.00;99.90;;;;;;4994490;28;20450;-74
2022/11/27 05:51:47;;;;;;;10.40;9.23;;;3.10;99.90;;;;;;4994208;28;20778;-74
2022/11/27 05:54:12;;;;;;;11.23;10.03;;;3.00;99.90;;;;;;4994264;28;20660;-74
2022/11/27 05:56:38;;;;;;;12.60;10.40;;;3.10;99.90;;;;;;4994624;28;20237;-74
2022/11/27 05:59:03;;;;;;;9.30;8.27;;;3.10;99.90;;;;;;4993226;28;20185;-74
2022/11/27 06:01:29;;;;;;;9.10;8.20;;;3.00;99.90;;;;;;4993860;28;20240;-74
2022/11/27 06:03:55;;;;;;;10.73;9.17;;;3.00;99.90;;;;;;4993849;28;20195;-74
2022/11/27 06:06:20;;;;;;;12.33;11.03;;;2.90;99.90;;;;;;4993920;28;20645;-74
2022/11/27 06:08:46;;;;;;;13.13;10.43;;;2.90;99.90;;;;;;4976458;28;20253;-75
2022/11/27 06:11:16;;;;;;;13.37;10.80;;;2.90;99.90;;;;;;4993782;28;20192;-74
2022/11/27 06:13:42;;;;;;;13.07;11.03;;;2.90;99.90;;;;;;4993371;28;20446;-74
2022/11/27 06:16:11;;;;;;;17.10;11.00;;;2.80;99.90;;;;;;4992829;28;20934;-75
2022/11/27 06:18:37;;;;;;;13.87;9.17;;;2.70;99.90;;;;;;4976488;28;20418;-75
2022/11/27 06:21:08;;;;;;;12.53;9.27;;;2.70;99.90;;;;;;4993741;28;20584;-74
2022/11/27 06:23:34;;;;;;;12.50;8.90;;;2.80;99.90;;;;;;4993614;28;20223;-74
2022/11/27 06:26:09;;;;;;;10.17;8.17;;;2.80;99.90;;;;;;4993501;28;20817;-76
2022/11/27 06:28:35;;;;;;;9.83;8.37;;;2.80;99.90;;;;;;4993391;28;20821;-75
2022/11/27 06:31:05;;;;;;;15.63;9.93;;;2.90;99.90;;;;;;4992183;28;20452;-75
2022/11/27 06:33:30;;;;;;;10.60;7.93;;;3.00;99.90;;;;;;4976169;28;20188;-75
2022/11/27 06:35:56;;;;;;;11.00;9.27;;;3.00;99.90;;;;;;4993912;28;20916;-75
2022/11/27 06:38:23;;;;;;;11.70;8.20;;;3.00;99.90;;;;;;4993696;28;20303;-75
2022/11/27 06:40:48;;;;;;;12.00;8.97;;;3.00;99.90;;;;;;4993282;28;20161;-75
2022/11/27 06:43:14;;;;;;;12.50;9.13;;;2.90;99.90;;;;;;4993343;28;20447;-75
2022/11/27 06:45:39;;;;;;;8.93;6.93;;;2.90;99.90;;;;;;4993103;28;20291;-75
2022/11/27 06:48:05;;;;;;;11.27;8.80;;;2.90;99.90;;;;;;4995744;28;20168;-75
2022/11/27 06:50:31;;;;;;;7.70;6.77;;;2.90;99.90;;;;;;4993077;28;20275;-75
2022/11/27 06:52:56;;;;;;;11.00;9.50;;;2.90;99.90;;;;;;4993248;28;20188;-75
2022/11/27 06:55:22;;;;;;;9.77;8.77;;;2.90;99.90;;;;;;4992983;28;20164;-75
2022/11/27 06:57:49;;;;;;;7.70;6.90;;;3.00;99.90;;;;;;4993196;28;20224;-75
2022/11/27 07:00:15;;;;;;;12.20;7.83;;;3.00;99.90;;;;;;4993000;28;20219;-75
2022/11/27 07:02:41;;;;;;;11.20;8.90;;;3.10;99.90;;;;;;4993211;28;20472;-75
2022/11/27 07:05:07;;;;;;;10.50;9.13;;;3.20;99.90;;;;;;4993299;28;20754;-76
2022/11/27 07:07:32;;;;;;;12.93;11.10;;;3.20;99.90;;;;;;4993313;28;20179;-75
2022/11/27 07:09:58;;;;;;;20.60;16.93;;;3.20;99.90;;;;;;4993047;28;20554;-75
2022/11/27 07:12:23;;;;;;;18.80;13.50;;;3.20;99.90;;;;;;4993548;28;20228;-75
2022/11/27 07:14:49;;;;;;;23.93;19.07;;;3.30;99.90;;;;;;4992815;28;20169;-74
2022/11/27 07:17:14;;;;;;;18.83;15.63;;;3.30;99.90;;;;;;4992789;28;20284;-74
2022/11/27 07:19:40;;;;;;;12.37;10.60;;;3.30;99.90;;;;;;4992863;28;20268;-75
2022/11/27 07:22:06;;;;;;;11.80;10.60;;;3.30;99.90;;;;;;4992977;28;20202;-75
2022/11/27 07:24:31;;;;;;;14.33;11.10;;;3.40;99.90;;;;;;4992722;28;20189;-75
2022/11/27 07:26:57;;;;;;;9.60;8.60;;;3.40;99.90;;;;;;4994154;28;20176;-75
2022/11/27 07:29:22;;;;;;;9.50;8.47;;;3.40;99.90;;;;;;4995505;28;20512;-75
2022/11/27 07:31:50;;;;;;;10.97;8.03;;;3.40;99.90;;;;;;4996872;28;20270;-75
2022/11/27 07:34:15;;;;;;;21.37;17.10;;;3.40;99.90;;;;;;4996618;28;20672;-75
2022/11/27 07:36:41;;;;;;;20.20;17.70;;;3.40;99.90;;;;;;4996252;28;20431;-75
2022/11/27 07:39:06;;;;;;;15.03;12.03;;;3.60;99.90;;;;;;4996190;28;20184;-75
2022/11/27 07:41:32;;;;;;;11.37;9.97;;;3.70;99.90;;;;;;4997515;28;20200;-75
2022/11/27 07:43:57;;;;;;;13.47;10.50;;;3.80;99.90;;;;;;4996917;28;20553;-76
2022/11/27 07:46:24;;;;;;;11.53;10.43;;;3.90;99.90;;;;;;4996607;28;20172;-76
2022/11/27 07:48:50;;;;;;;12.97;10.17;;;3.90;99.90;;;;;;4996420;28;20248;-76
2022/11/27 07:51:18;;;;;;;10.80;9.50;;;4.10;99.90;;;;;;4996444;28;20403;-75
2022/11/27 07:53:44;;;;;;;15.30;10.60;;;4.10;99.90;;;;;;4996625;28;20459;-75
2022/11/27 07:56:14;;;;;;;13.17;10.27;;;4.20;99.90;;;;;;4995357;28;20462;-76
2022/11/27 07:58:40;;;;;;;11.10;9.97;;;4.30;99.90;;;;;;4996763;28;20904;-75
2022/11/27 08:01:11;;;;;;;12.97;9.07;;;4.30;99.90;;;;;;4996531;28;20415;-75
2022/11/27 08:03:37;;;;;;;12.40;10.67;;;4.40;99.90;;;;;;4996498;28;20419;-75
2022/11/27 08:06:03;;;;;;;17.27;12.37;;;4.30;99.90;;;;;;4996645;28;20403;-75
2022/11/27 08:08:29;;;;;;;12.93;11.13;;;4.40;99.90;;;;;;4996643;28;20499;-76
2022/11/27 08:10:54;;;;;;;13.33;11.60;;;4.40;99.90;;;;;;4996013;28;20534;-76
2022/11/27 08:13:20;;;;;;;16.17;11.97;;;4.50;99.90;;;;;;4978261;28;20696;-76
2022/11/27 08:15:46;;;;;;;17.60;13.90;;;4.50;99.90;;;;;;4978471;28;20169;-76
2022/11/27 08:18:12;;;;;;;18.70;11.93;;;4.60;99.90;;;;;;4996630;28;20505;-76
2022/11/27 08:20:38;;;;;;;12.40;10.30;;;4.70;99.90;;;;;;4977553;28;20419;-75
2022/11/27 08:23:04;;;;;;;10.87;9.40;;;4.70;99.90;;;;;;4978868;28;20201;-75
2022/11/27 08:25:30;;;;;;;12.47;9.97;;;4.80;99.90;;;;;;4996922;28;20233;-75
2022/11/27 08:27:56;;;;;;;10.07;8.87;;;4.90;99.90;;;;;;4995818;28;20184;-74
2022/11/27 08:30:24;;;;;;;8.77;7.97;;;4.80;99.90;;;;;;4994685;28;20455;-74
2022/11/27 08:32:50;;;;;;;10.43;9.27;;;4.70;99.90;;;;;;4996024;28;20188;-74
2022/11/27 08:35:16;;;;;;;14.00;10.23;;;4.90;99.90;;;;;;4995430;28;20926;-74
2022/11/27 08:37:41;;;;;;;11.63;9.60;;;5.00;99.90;;;;;;4995085;28;20187;-75
2022/11/27 08:40:08;;;;;;;10.60;9.30;;;5.10;99.90;;;;;;4995850;28;20412;-75
2022/11/27 08:42:34;;;;;;;10.03;8.63;;;5.10;99.90;;;;;;4995574;28;20687;-75
2022/11/27 08:44:59;;;;;;;11.33;10.17;;;5.10;99.90;;;;;;4995348;28;20408;-75
2022/11/27 08:47:25;;;;;;;11.40;9.70;;;5.30;99.90;;;;;;4994173;28;20173;-75
2022/11/27 08:49:51;;;;;;;10.70;9.60;;;5.40;99.90;;;;;;4995322;28;20188;-75
2022/11/27 08:52:16;;;;;;;12.17;10.87;;;5.50;99.90;;;;;;4995564;28;20169;-75
2022/11/27 08:54:42;;;;;;;11.53;10.47;;;5.30;99.90;;;;;;4996606;28;21013;-74
2022/11/27 08:57:08;;;;;;;12.30;10.50;;;5.40;99.90;;;;;;4995724;28;20241;-75
2022/11/27 08:59:33;;;;;;;12.70;10.83;;;5.70;99.90;;;;;;4995401;28;20173;-75
2022/11/27 09:01:59;;;;;;;13.13;11.70;;;5.90;99.90;;;;;;4995375;28;20577;-75
2022/11/27 09:04:24;;;;;;;17.03;15.20;;;6.20;99.90;;;;;;4995293;28;20645;-75
2022/11/27 09:06:50;;;;;;;39.03;29.03;;;6.50;99.90;;;;;;4995380;28;20247;-75
2022/11/27 09:09:15;;;;;;;20.97;16.00;;;6.70;99.90;;;;;;4994626;28;20188;-77
2022/11/27 09:11:41;;;;;;;12.23;10.97;;;6.80;99.90;;;;;;4996061;28;20618;-76
2022/11/27 09:14:07;;;;;;;11.07;9.97;;;6.70;99.90;;;;;;4995934;28;20262;-76
2022/11/27 09:16:34;;;;;;;13.47;11.10;;;7.00;99.90;;;;;;4995381;28;20757;-76
2022/11/27 09:19:00;;;;;;;12.63;11.47;;;7.10;99.90;;;;;;4995321;28;20465;-76
2022/11/27 09:21:27;;;;;;;11.73;10.63;;;7.20;99.90;;;;;;4995360;28;20493;-74
2022/11/27 09:23:54;;;;;;;13.70;12.23;;;7.40;99.90;;;;;;4994922;28;20508;-75
2022/11/27 09:26:22;;;;;;;16.20;13.60;;;7.50;99.90;;;;;;4995907;28;20421;-76
2022/11/27 09:28:48;;;;;;;12.00;10.77;;;7.60;99.90;;;;;;5001491;28;20404;-75
2022/11/27 09:31:14;;;;;;;11.33;10.17;;;7.80;99.90;;;;;;4998325;28;20423;-76
2022/11/27 09:33:41;;;;;;;12.10;11.00;;;7.80;99.90;;;;;;4995457;28;20633;-75
2022/11/27 09:36:15;;;;;;;11.10;10.20;;;7.90;99.90;;;;;;4997307;28;20455;-75
2022/11/27 09:38:41;;;;;;;10.70;9.40;;;8.00;99.90;;;;;;4996454;28;20396;-75
2022/11/27 09:41:13;;;;;;;10.70;9.67;;;8.20;99.90;;;;;;4995586;28;20421;-76
2022/11/27 09:43:58;;;;;;;11.30;9.37;;;8.30;99.90;;;;;;4994693;28;20768;-76
2022/11/27 09:46:30;;;;;;;10.83;9.83;;;8.20;99.90;;;;;;4994171;28;20413;-75
2022/11/27 09:48:57;;;;;;;14.90;13.37;;;7.60;99.90;;;;;;4994207;28;20392;-75
2022/11/27 09:52:00;;;;;;;11.80;10.70;;;7.40;99.90;;;;;;4976411;28;20426;-76
2022/11/27 09:54:41;;;;;;;11.90;10.70;;;7.20;99.90;;;;;;4953170;28;20504;-76
2022/11/27 09:57:14;;;;;;;11.93;10.70;;;7.40;99.90;;;;;;4994592;28;20422;-76
2022/11/27 09:59:51;;;;;;;10.00;9.10;;;7.50;99.90;;;;;;4993796;28;20407;-76
2022/11/27 10:02:27;;;;;;;12.77;11.27;;;7.60;99.90;;;;;;4995750;28;20496;-74
2022/11/27 10:04:53;;;;;;;11.90;9.87;;;7.50;99.90;;;;;;4995268;28;20880;-77
2022/11/27 10:07:40;;;;;;;13.13;11.83;;;6.90;99.90;;;;;;4994865;28;20423;-76
2022/11/27 10:10:34;;;;;;;11.80;10.60;;;6.70;99.90;;;;;;4992731;28;20810;-76
2022/11/27 10:13:13;;;;;;;10.60;9.70;;;6.70;99.90;;;;;;4992824;28;20431;-76
2022/11/27 10:16:08;;;;;;;12.00;10.67;;;7.00;99.90;;;;;;4993924;28;20432;-76
2022/11/27 10:18:48;;;;;;;12.37;11.27;;;7.10;99.90;;;;;;4993405;28;20435;-76
2022/11/27 10:21:45;;;;;;;13.17;11.67;;;7.10;99.90;;;;;;4993528;28;20422;-76
2022/11/27 10:24:40;;;;;;;13.87;12.57;;;7.20;99.90;;;;;;4993486;28;20421;-76
2022/11/27 10:27:35;;;;;;;13.00;11.80;;;7.30;99.90;;;;;;4993523;28;20888;-76
2022/11/27 10:30:11;;;;;;;13.00;11.60;;;7.60;99.90;;;;;;4969469;28;20482;-76
2022/11/27 10:32:38;;;;;;;12.67;11.43;;;7.90;99.90;;;;;;4976123;28;20415;-75
2022/11/27 10:35:16;;;;;;;13.53;12.23;;;7.80;99.90;;;;;;4993445;28;20429;-75
2022/11/27 10:37:57;;;;;;;13.30;11.90;;;7.00;99.90;;;;;;4993118;28;20769;-75
2022/11/27 10:40:33;;;;;;;12.87;11.57;;;7.00;99.90;;;;;;4993794;28;20449;-75
2022/11/27 10:43:11;;;;;;;14.70;13.00;;;7.30;99.90;;;;;;4994520;28;20417;-76
2022/11/27 10:45:55;;;;;;;12.30;11.13;;;7.60;99.90;;;;;;4994534;28;20396;-75
2022/11/27 10:48:21;;;;;;;14.30;12.60;;;8.30;99.90;;;;;;4976543;28;20421;-76
2022/11/27 10:50:48;;;;;;;10.83;9.83;;;9.60;99.90;;;;;;4993033;28;20439;-76
2022/11/27 10:53:24;;;;;;;10.20;9.20;;;11.80;99.90;;;;;;5009740;28;20428;-76
2022/11/27 10:55:59;;;;;;;10.63;9.63;;;14.10;99.90;;;;;;5013235;28;20406;-75
2022/11/27 10:58:33;;;;;;;9.13;8.33;;;16.20;99.90;;;;;;5001681;28;20952;-76
2022/11/27 11:01:06;;;;;;;10.03;9.03;;;17.20;97.50;;;;;;4992745;28;20399;-75
2022/11/27 11:03:32;;;;;;;9.30;8.50;;;17.00;96.00;;;;;;4994460;28;20453;-76
2022/11/27 11:06:04;;;;;;;8.47;7.57;;;17.70;95.70;;;;;;4993606;28;20414;-75
2022/11/27 11:08:30;;;;;;;11.73;10.63;;;18.50;93.20;;;;;;4993794;28;20395;-76
2022/11/27 11:10:56;;;;;;;7.80;7.00;;;18.50;92.50;;;;;;4993203;28;20459;-76
2022/11/27 11:13:26;;;;;;;7.33;6.67;;;18.40;92.10;;;;;;4992471;28;20447;-76
2022/11/27 11:16:14;;;;;;;7.70;7.10;;;18.60;89.90;;;;;;4978383;28;20540;-76
2022/11/27 11:18:48;;;;;;;7.40;6.70;;;19.10;90.30;;;;;;4974412;28;20835;-75
2022/11/27 11:21:37;;;;;;;7.70;6.90;;;19.60;87.90;;;;;;4973197;28;20483;-76
2022/11/27 11:24:06;;;;;;;7.60;6.80;;;19.50;86.40;;;;;;4973522;28;20531;-76
2022/11/27 11:26:46;;;;;;;7.60;6.90;;;18.70;86.00;;;;;;4973111;28;20432;-76
2022/11/27 11:29:33;;;;;;;7.27;4.83;;;19.70;85.90;;;;;;4988694;28;20447;-75
2022/11/27 11:32:19;;;;;;;4.43;4.13;;;20.30;80.80;;;;;;4991463;28;20454;-75
2022/11/27 11:34:52;;;;;;;5.57;4.20;;;21.80;75.50;;;;;;4992591;28;20423;-75
2022/11/27 11:37:24;;;;;;;6.23;5.53;;;21.30;74.80;;;;;;4974585;28;20470;-76
2022/11/27 11:40:22;;;;;;;9.27;7.57;;;20.40;75.10;;;;;;4993228;28;20399;-76
2022/11/27 11:42:57;;;;;;;8.10;7.30;;;18.90;77.70;;;;;;4989972;28;20439;-75
2022/11/27 11:45:25;;;;;;;11.77;10.57;;;16.90;84.30;;;;;;4992457;28;20443;-76
2022/11/27 11:47:52;;;;;;;10.40;9.20;;;15.80;88.20;;;;;;4991877;28;20419;-76
2022/11/27 11:50:40;;;;;;;12.40;11.20;;;15.10;90.20;;;;;;4992400;28;20444;-76
2022/11/27 11:53:35;;;;;;;12.17;11.00;;;14.90;92.20;;;;;;4992168;28;20792;-76
2022/11/27 11:56:03;;;;;;;8.27;7.37;;;15.10;93.00;;;;;;4992927;28;20388;-76
2022/11/27 11:58:38;;;;;;;5.20;4.70;;;16.10;92.80;;;;;;4993036;28;20752;-74
2022/11/27 12:01:31;;;;;;;5.47;5.07;;;17.00;89.70;;;;;;4992592;28;20395;-75
2022/11/27 12:04:15;;;;;;;5.83;5.17;;;17.00;86.60;;;;;;4992621;28;20424;-75
2022/11/27 12:06:59;;;;;;;4.80;4.40;;;16.80;85.10;;;;;;4992903;28;20853;-77
2022/11/27 12:09:24;;;;;;;5.00;4.60;;;16.30;88.50;;;;;;4992437;28;20443;-75
2022/11/27 12:11:58;;;;;;;7.23;5.57;;;16.50;85.70;;;;;;4992289;28;20553;-75
2022/11/27 12:14:36;;;;;;;4.83;4.43;;;15.00;87.50;;;;;;4995921;28;20263;-76
2022/11/27 12:17:02;;;;;;;5.10;4.60;;;14.00;90.50;;;;;;4995823;28;20419;-76
2022/11/27 12:19:48;;;;;;;4.50;4.10;;;14.80;91.40;;;;;;4996747;28;20868;-76
2022/11/27 12:22:36;;;;;;;5.20;4.10;;;15.40;87.90;;;;;;4996135;28;20411;-76
2022/11/27 12:25:24;;;;;;;4.33;3.93;;;16.20;86.70;;;;;;4978141;28;20425;-76
2022/11/27 12:28:23;;;;;;;4.30;3.90;;;16.50;84.90;;;;;;4996079;28;20445;-76
2022/11/27 12:31:16;;;;;;;4.57;4.17;;;15.10;86.80;;;;;;4995873;28;20530;-76
2022/11/27 12:33:59;;;;;;;4.77;4.27;;;13.40;89.30;;;;;;4995540;28;20466;-76
2022/11/27 12:36:46;;;;;;;4.73;4.33;;;11.70;92.30;;;;;;4995265;28;20905;-75
2022/11/27 12:39:24;;;;;;;7.03;3.70;;;11.10;94.20;;;;;;4995364;28;20398;-76
2022/11/27 12:42:11;;;;;;;4.20;3.80;;;10.80;95.10;;;;;;4995835;28;20497;-76
2022/11/27 12:44:49;;;;;;;5.40;3.93;;;10.80;96.90;;;;;;4995502;28;20779;-76
2022/11/27 12:47:22;;;;;;;4.13;3.73;;;10.80;98.70;;;;;;4995668;28;20388;-76
2022/11/27 12:49:56;;;;;;;5.60;3.63;;;10.70;99.00;;;;;;4995757;28;20441;-75
2022/11/27 12:52:28;;;;;;;4.60;3.70;;;10.60;98.40;;;;;;4995162;28;20478;-76
2022/11/27 12:55:11;;;;;;;4.93;4.10;;;10.70;99.10;;;;;;5005175;28;20388;-76
2022/11/27 12:57:47;;;;;;;4.20;3.80;;;10.90;99.70;;;;;;4996028;28;20454;-76